Government of Jersey

Home Log in

METAR EGJJ 100950Z 03011KT 360V080 CAVOK 24/17 Q1023

METAR EGJB 100950Z 05011KT 9999 FEW007 22/17 Q1024

METAR EGJA 100950Z 04011KT 9999 SCT005 20/17 Q1024

METAR LFRD 101000Z AUTO 02010KT CAVOK 24/17 Q1022 NOSIG

METAR LFRC 101000Z AUTO 07012KT 040V100 CAVOK 22/17 Q1024 TEMPO BKN008

METAR LFRT 101000Z AUTO 02011KT 9999 OVC008 21/18 Q1023